Messwerte Buckland

Temperatur

Temperatur
°C
1614150000 22.00 22.00 -29
1614153600 23.00 23.00 -31
1614157200 0.00 0.00 -31
1614160800 1.00 1.00 -31
1614164400 2.00 2.00 -28
1614168000 3.00 3.00 -30
1614171600 4.00 4.00 -29
1614175200 5.00 5.00 -27
1614178800 6.00 6.00
1614182400 7.00 7.00 -25
1614186000 8.00 8.00 -24
1614189600 9.00 9.00 -24
1614193200 10.00 10.00 -23
1614196800 11.00 11.00 -21
1614200400 12.00 12.00 -19
1614204000 13.00 13.00 -19
1614207600 14.00 14.00 -18
1614211200 15.00 15.00 -18
1614214800 16.00 16.00 -17
1614218400 17.00 17.00 -17
1614222000 18.00 18.00 -17
1614225600 19.00 19.00 -17
1614229200 20.00 20.00 -17
1614232800 21.00 21.00

Wir danken unserem Partner:

Aktuellste Messwerte

Wettercharakter
Wetter: bedeckt, etwas Schnee
Temperatur
-17 °C
Feuchtigkeit
85 %
Wind
10 km/hWindrichtung: Nordwest
Luftdruck
1001 hPa
Messzeit: 24. Februar 2021, 22.00Datenquelle: METAR

Weitere Messstationen in der Nähe

Messstation Temperatur Entfernung
Selawik -15 °C 88 km
Koyuk, Koyuk Airport -17 °C 117 km
Kotzebue -24 °C 121 km
Ambler -18 °C 192 km
Noatak -25 °C 194 km
Huslia -16 °C 220 km
Unalakleet -9 °C 234 km

Wind

Windrichtung Böen Mittelwind
° km/h km/h
1614150000 22.00 21.00 - 22.00 160° 5
1614153600 23.00 22.00 - 23.00 0
1614157200 0.00 23.00 - 0.00 40° 5
1614160800 1.00 0.00 - 1.00 90° 5
1614164400 2.00 1.00 - 2.00 150° 5
1614168000 3.00 2.00 - 3.00 0
1614171600 4.00 3.00 - 4.00 0
1614175200 5.00 4.00 - 5.00 80° 5
1614178800 6.00 5.00 - 6.00
1614182400 7.00 6.00 - 7.00 30° 5
1614186000 8.00 7.00 - 8.00 320° 5
1614189600 9.00 8.00 - 9.00 310° 10
1614193200 10.00 9.00 - 10.00 320° 5
1614196800 11.00 10.00 - 11.00 330° 0
1614200400 12.00 11.00 - 12.00 0
1614204000 13.00 12.00 - 13.00 290° 5
1614207600 14.00 13.00 - 14.00 280° 10
1614211200 15.00 14.00 - 15.00 280° 15
1614214800 16.00 15.00 - 16.00 280° 15
1614218400 17.00 16.00 - 17.00 280° 15
1614222000 18.00 17.00 - 18.00 280° 20
1614225600 19.00 18.00 - 19.00 290° 20
1614229200 20.00 19.00 - 20.00 290° 15
1614232800 21.00 20.00 - 21.00

Ihre Wetterstation

Fehlt Ihre Wetterstation auf unserem Portal?

Schreiben Sie an network@meteonews.ch

Klima

Wann ist es am wärmsten? Wann regnet es am wenigsten? Unsere Klimadaten geben Auskunft.